sensor_id;sensor_type;location;lat;lon;timestamp;P1;durP1;ratioP1;P2;durP2;ratioP2
8421;SDS011;4248;48.196;10.924;2024-01-15T00:02:17;6.47;;;3.43;;
8421;SDS011;4248;48.196;10.924;2024-01-15T00:04:42;8.30;;;3.67;;
8421;SDS011;4248;48.196;10.924;2024-01-15T00:07:08;6.03;;;2.97;;
8421;SDS011;4248;48.196;10.924;2024-01-15T00:09:34;5.35;;;2.40;;
8421;SDS011;4248;48.196;10.924;2024-01-15T00:12:00;5.85;;;3.08;;
8421;SDS011;4248;48.196;10.924;2024-01-15T00:14:27;5.53;;;3.50;;
8421;SDS011;4248;48.196;10.924;2024-01-15T00:16:53;4.90;;;2.50;;
8421;SDS011;4248;48.196;10.924;2024-01-15T00:19:20;7.20;;;4.10;;
8421;SDS011;4248;48.196;10.924;2024-01-15T00:21:47;5.82;;;3.45;;
8421;SDS011;4248;48.196;10.924;2024-01-15T00:24:12;10.30;;;4.70;;
8421;SDS011;4248;48.196;10.924;2024-01-15T00:26:38;9.90;;;4.53;;
8421;SDS011;4248;48.196;10.924;2024-01-15T00:29:04;13.57;;;5.57;;
8421;SDS011;4248;48.196;10.924;2024-01-15T00:31:32;7.97;;;4.40;;
8421;SDS011;4248;48.196;10.924;2024-01-15T00:33:57;12.50;;;6.30;;
8421;SDS011;4248;48.196;10.924;2024-01-15T00:36:23;9.00;;;5.03;;
8421;SDS011;4248;48.196;10.924;2024-01-15T00:38:48;7.93;;;3.77;;
8421;SDS011;4248;48.196;10.924;2024-01-15T00:41:14;11.53;;;4.90;;
8421;SDS011;4248;48.196;10.924;2024-01-15T00:43:40;13.13;;;5.53;;
8421;SDS011;4248;48.196;10.924;2024-01-15T00:46:05;11.63;;;6.27;;
8421;SDS011;4248;48.196;10.924;2024-01-15T00:48:31;13.83;;;5.63;;
8421;SDS011;4248;48.196;10.924;2024-01-15T00:50:57;13.27;;;6.18;;
8421;SDS011;4248;48.196;10.924;2024-01-15T00:53:23;12.67;;;6.13;;
8421;SDS011;4248;48.196;10.924;2024-01-15T00:55:48;14.43;;;7.00;;
8421;SDS011;4248;48.196;10.924;2024-01-15T00:58:14;10.10;;;4.70;;
8421;SDS011;4248;48.196;10.924;2024-01-15T01:00:40;8.03;;;4.50;;
8421;SDS011;4248;48.196;10.924;2024-01-15T01:03:05;15.33;;;5.67;;
8421;SDS011;4248;48.196;10.924;2024-01-15T01:05:31;13.03;;;6.03;;
8421;SDS011;4248;48.196;10.924;2024-01-15T01:07:58;11.35;;;4.93;;
8421;SDS011;4248;48.196;10.924;2024-01-15T01:10:23;12.43;;;5.30;;
8421;SDS011;4248;48.196;10.924;2024-01-15T01:12:49;6.63;;;3.43;;
8421;SDS011;4248;48.196;10.924;2024-01-15T01:15:14;9.00;;;4.50;;
8421;SDS011;4248;48.196;10.924;2024-01-15T01:17:40;7.60;;;4.40;;
8421;SDS011;4248;48.196;10.924;2024-01-15T01:20:06;15.43;;;5.90;;
8421;SDS011;4248;48.196;10.924;2024-01-15T01:22:34;7.05;;;3.30;;
8421;SDS011;4248;48.196;10.924;2024-01-15T01:24:59;11.27;;;4.83;;
8421;SDS011;4248;48.196;10.924;2024-01-15T01:27:25;9.20;;;4.17;;
8421;SDS011;4248;48.196;10.924;2024-01-15T01:29:51;14.40;;;6.70;;
8421;SDS011;4248;48.196;10.924;2024-01-15T01:32:16;14.60;;;6.57;;
8421;SDS011;4248;48.196;10.924;2024-01-15T01:34:42;9.00;;;3.77;;
8421;SDS011;4248;48.196;10.924;2024-01-15T01:37:08;8.70;;;4.00;;
8421;SDS011;4248;48.196;10.924;2024-01-15T01:39:34;14.00;;;6.10;;
8421;SDS011;4248;48.196;10.924;2024-01-15T01:42:00;11.33;;;5.83;;
8421;SDS011;4248;48.196;10.924;2024-01-15T01:44:26;14.93;;;7.27;;
8421;SDS011;4248;48.196;10.924;2024-01-15T01:46:51;13.80;;;6.60;;
8421;SDS011;4248;48.196;10.924;2024-01-15T01:49:18;16.17;;;7.53;;
8421;SDS011;4248;48.196;10.924;2024-01-15T01:51:44;12.90;;;6.47;;
8421;SDS011;4248;48.196;10.924;2024-01-15T01:54:10;12.13;;;6.60;;
8421;SDS011;4248;48.196;10.924;2024-01-15T01:56:38;10.45;;;5.25;;
8421;SDS011;4248;48.196;10.924;2024-01-15T01:59:05;14.43;;;5.88;;
8421;SDS011;4248;48.196;10.924;2024-01-15T02:01:32;16.15;;;7.10;;
8421;SDS011;4248;48.196;10.924;2024-01-15T02:03:58;13.73;;;6.68;;
8421;SDS011;4248;48.196;10.924;2024-01-15T02:06:25;12.85;;;7.00;;
8421;SDS011;4248;48.196;10.924;2024-01-15T02:08:50;17.13;;;6.00;;
8421;SDS011;4248;48.196;10.924;2024-01-15T02:11:16;11.98;;;5.85;;
8421;SDS011;4248;48.196;10.924;2024-01-15T02:13:42;16.60;;;5.80;;
8421;SDS011;4248;48.196;10.924;2024-01-15T02:16:07;10.33;;;5.77;;
8421;SDS011;4248;48.196;10.924;2024-01-15T02:18:42;7.77;;;4.90;;
8421;SDS011;4248;48.196;10.924;2024-01-15T02:21:09;11.52;;;5.32;;
8421;SDS011;4248;48.196;10.924;2024-01-15T02:23:35;10.18;;;4.35;;
8421;SDS011;4248;48.196;10.924;2024-01-15T02:26:02;12.32;;;4.97;;
8421;SDS011;4248;48.196;10.924;2024-01-15T02:28:29;9.65;;;3.65;;
8421;SDS011;4248;48.196;10.924;2024-01-15T02:30:55;11.20;;;5.27;;
8421;SDS011;4248;48.196;10.924;2024-01-15T02:33:20;10.13;;;5.13;;
8421;SDS011;4248;48.196;10.924;2024-01-15T02:35:46;12.73;;;5.60;;
8421;SDS011;4248;48.196;10.924;2024-01-15T02:38:15;9.35;;;4.60;;
8421;SDS011;4248;48.196;10.924;2024-01-15T02:40:41;12.50;;;5.60;;
8421;SDS011;4248;48.196;10.924;2024-01-15T02:43:08;9.55;;;5.22;;
8421;SDS011;4248;48.196;10.924;2024-01-15T02:45:34;12.73;;;5.73;;
8421;SDS011;4248;48.196;10.924;2024-01-15T02:47:59;8.83;;;4.93;;
8421;SDS011;4248;48.196;10.924;2024-01-15T02:50:25;9.03;;;5.40;;
8421;SDS011;4248;48.196;10.924;2024-01-15T02:52:51;13.00;;;5.63;;
8421;SDS011;4248;48.196;10.924;2024-01-15T02:55:17;12.40;;;4.95;;
8421;SDS011;4248;48.196;10.924;2024-01-15T02:57:42;9.30;;;4.73;;
8421;SDS011;4248;48.196;10.924;2024-01-15T03:00:08;10.83;;;4.67;;
8421;SDS011;4248;48.196;10.924;2024-01-15T03:02:38;11.75;;;5.97;;
8421;SDS011;4248;48.196;10.924;2024-01-15T03:05:05;8.93;;;3.88;;
8421;SDS011;4248;48.196;10.924;2024-01-15T03:07:34;10.80;;;4.47;;
8421;SDS011;4248;48.196;10.924;2024-01-15T03:10:00;8.10;;;4.17;;
8421;SDS011;4248;48.196;10.924;2024-01-15T03:12:25;12.03;;;5.80;;
8421;SDS011;4248;48.196;10.924;2024-01-15T03:14:51;8.00;;;4.40;;
8421;SDS011;4248;48.196;10.924;2024-01-15T03:17:16;8.93;;;5.07;;
8421;SDS011;4248;48.196;10.924;2024-01-15T03:19:42;13.83;;;5.27;;
8421;SDS011;4248;48.196;10.924;2024-01-15T03:22:08;9.27;;;4.70;;
8421;SDS011;4248;48.196;10.924;2024-01-15T03:24:34;8.30;;;4.87;;
8421;SDS011;4248;48.196;10.924;2024-01-15T03:27:00;10.52;;;5.15;;
8421;SDS011;4248;48.196;10.924;2024-01-15T03:29:26;12.97;;;5.57;;
8421;SDS011;4248;48.196;10.924;2024-01-15T03:31:51;8.17;;;4.20;;
8421;SDS011;4248;48.196;10.924;2024-01-15T03:34:18;8.02;;;4.15;;
8421;SDS011;4248;48.196;10.924;2024-01-15T03:36:43;8.40;;;4.40;;
8421;SDS011;4248;48.196;10.924;2024-01-15T03:39:09;5.60;;;3.03;;
8421;SDS011;4248;48.196;10.924;2024-01-15T03:41:34;5.90;;;3.20;;
8421;SDS011;4248;48.196;10.924;2024-01-15T03:44:00;7.57;;;3.60;;
8421;SDS011;4248;48.196;10.924;2024-01-15T03:46:26;7.47;;;3.23;;
8421;SDS011;4248;48.196;10.924;2024-01-15T03:48:52;7.13;;;4.10;;
8421;SDS011;4248;48.196;10.924;2024-01-15T03:51:18;7.13;;;3.60;;
8421;SDS011;4248;48.196;10.924;2024-01-15T03:53:43;5.73;;;3.10;;
8421;SDS011;4248;48.196;10.924;2024-01-15T03:56:09;7.60;;;4.57;;
8421;SDS011;4248;48.196;10.924;2024-01-15T03:58:35;10.13;;;5.10;;
8421;SDS011;4248;48.196;10.924;2024-01-15T04:01:00;10.37;;;4.90;;
8421;SDS011;4248;48.196;10.924;2024-01-15T04:03:26;12.27;;;4.70;;
8421;SDS011;4248;48.196;10.924;2024-01-15T04:05:52;11.55;;;5.20;;
8421;SDS011;4248;48.196;10.924;2024-01-15T04:08:17;9.07;;;4.13;;
8421;SDS011;4248;48.196;10.924;2024-01-15T04:10:43;10.60;;;4.77;;
8421;SDS011;4248;48.196;10.924;2024-01-15T04:13:09;9.87;;;4.47;;
8421;SDS011;4248;48.196;10.924;2024-01-15T04:15:34;9.10;;;4.43;;
8421;SDS011;4248;48.196;10.924;2024-01-15T04:18:01;9.30;;;4.85;;
8421;SDS011;4248;48.196;10.924;2024-01-15T04:20:27;8.10;;;4.60;;
8421;SDS011;4248;48.196;10.924;2024-01-15T04:22:53;12.63;;;5.13;;
8421;SDS011;4248;48.196;10.924;2024-01-15T04:25:18;10.40;;;5.37;;
8421;SDS011;4248;48.196;10.924;2024-01-15T04:27:44;10.07;;;4.40;;
8421;SDS011;4248;48.196;10.924;2024-01-15T04:30:10;9.67;;;5.00;;
8421;SDS011;4248;48.196;10.924;2024-01-15T04:32:35;9.53;;;4.60;;
8421;SDS011;4248;48.196;10.924;2024-01-15T04:35:01;12.10;;;5.70;;
8421;SDS011;4248;48.196;10.924;2024-01-15T04:37:27;10.10;;;5.10;;
8421;SDS011;4248;48.196;10.924;2024-01-15T04:39:52;10.37;;;4.47;;
8421;SDS011;4248;48.196;10.924;2024-01-15T04:42:20;11.27;;;5.00;;
8421;SDS011;4248;48.196;10.924;2024-01-15T04:44:46;10.60;;;5.57;;
8421;SDS011;4248;48.196;10.924;2024-01-15T04:47:12;8.85;;;4.50;;
8421;SDS011;4248;48.196;10.924;2024-01-15T04:49:38;9.10;;;4.20;;
8421;SDS011;4248;48.196;10.924;2024-01-15T04:52:03;10.97;;;4.93;;
8421;SDS011;4248;48.196;10.924;2024-01-15T04:54:29;10.93;;;4.30;;
8421;SDS011;4248;48.196;10.924;2024-01-15T04:56:54;9.50;;;5.20;;
8421;SDS011;4248;48.196;10.924;2024-01-15T04:59:20;11.37;;;5.57;;
8421;SDS011;4248;48.196;10.924;2024-01-15T05:01:46;22.07;;;8.97;;
8421;SDS011;4248;48.196;10.924;2024-01-15T05:04:12;21.50;;;9.27;;
8421;SDS011;4248;48.196;10.924;2024-01-15T05:06:38;45.40;;;15.43;;
8421;SDS011;4248;48.196;10.924;2024-01-15T05:09:03;21.80;;;9.60;;
8421;SDS011;4248;48.196;10.924;2024-01-15T05:11:29;56.17;;;19.83;;
8421;SDS011;4248;48.196;10.924;2024-01-15T05:13:55;39.57;;;15.90;;
8421;SDS011;4248;48.196;10.924;2024-01-15T05:16:20;31.07;;;11.17;;
8421;SDS011;4248;48.196;10.924;2024-01-15T05:18:46;19.57;;;8.87;;
8421;SDS011;4248;48.196;10.924;2024-01-15T05:21:11;19.83;;;9.83;;
8421;SDS011;4248;48.196;10.924;2024-01-15T05:23:37;18.83;;;10.50;;
8421;SDS011;4248;48.196;10.924;2024-01-15T05:26:03;15.13;;;8.10;;
8421;SDS011;4248;48.196;10.924;2024-01-15T05:28:29;13.63;;;7.43;;
8421;SDS011;4248;48.196;10.924;2024-01-15T05:30:54;13.03;;;6.20;;
8421;SDS011;4248;48.196;10.924;2024-01-15T05:33:20;11.43;;;7.03;;
8421;SDS011;4248;48.196;10.924;2024-01-15T05:35:49;13.50;;;7.68;;
8421;SDS011;4248;48.196;10.924;2024-01-15T05:38:15;10.85;;;5.47;;
8421;SDS011;4248;48.196;10.924;2024-01-15T05:40:41;10.30;;;5.95;;
8421;SDS011;4248;48.196;10.924;2024-01-15T05:43:07;12.00;;;5.37;;
8421;SDS011;4248;48.196;10.924;2024-01-15T05:45:33;10.17;;;5.03;;
8421;SDS011;4248;48.196;10.924;2024-01-15T05:48:00;10.40;;;5.20;;
8421;SDS011;4248;48.196;10.924;2024-01-15T05:50:26;11.00;;;5.50;;
8421;SDS011;4248;48.196;10.924;2024-01-15T05:52:52;10.23;;;4.57;;
8421;SDS011;4248;48.196;10.924;2024-01-15T05:55:17;8.90;;;4.70;;
8421;SDS011;4248;48.196;10.924;2024-01-15T05:57:43;10.43;;;6.00;;
8421;SDS011;4248;48.196;10.924;2024-01-15T06:00:10;10.07;;;5.82;;
8421;SDS011;4248;48.196;10.924;2024-01-15T06:02:39;20.00;;;9.57;;
8421;SDS011;4248;48.196;10.924;2024-01-15T06:05:05;10.60;;;5.70;;
8421;SDS011;4248;48.196;10.924;2024-01-15T06:07:31;9.60;;;5.05;;
8421;SDS011;4248;48.196;10.924;2024-01-15T06:09:58;9.02;;;5.38;;
8421;SDS011;4248;48.196;10.924;2024-01-15T06:12:24;14.47;;;6.40;;
8421;SDS011;4248;48.196;10.924;2024-01-15T06:14:50;8.67;;;5.03;;
8421;SDS011;4248;48.196;10.924;2024-01-15T06:17:15;13.20;;;5.00;;
8421;SDS011;4248;48.196;10.924;2024-01-15T06:19:41;9.80;;;5.67;;
8421;SDS011;4248;48.196;10.924;2024-01-15T06:22:06;10.00;;;5.30;;
8421;SDS011;4248;48.196;10.924;2024-01-15T06:24:32;10.53;;;5.80;;
8421;SDS011;4248;48.196;10.924;2024-01-15T06:26:57;9.80;;;5.37;;
8421;SDS011;4248;48.196;10.924;2024-01-15T06:29:25;11.77;;;5.53;;
8421;SDS011;4248;48.196;10.924;2024-01-15T06:31:51;10.40;;;5.85;;
8421;SDS011;4248;48.196;10.924;2024-01-15T06:34:16;14.27;;;6.03;;
8421;SDS011;4248;48.196;10.924;2024-01-15T06:36:42;10.80;;;5.40;;
8421;SDS011;4248;48.196;10.924;2024-01-15T06:39:08;11.00;;;5.83;;
8421;SDS011;4248;48.196;10.924;2024-01-15T06:41:35;12.35;;;5.22;;
8421;SDS011;4248;48.196;10.924;2024-01-15T06:44:06;11.25;;;5.10;;
8421;SDS011;4248;48.196;10.924;2024-01-15T06:46:31;13.03;;;5.10;;
8421;SDS011;4248;48.196;10.924;2024-01-15T06:48:57;7.77;;;3.83;;
8421;SDS011;4248;48.196;10.924;2024-01-15T06:51:23;9.40;;;4.97;;
8421;SDS011;4248;48.196;10.924;2024-01-15T06:53:48;9.10;;;5.07;;
8421;SDS011;4248;48.196;10.924;2024-01-15T06:56:14;12.07;;;4.83;;
8421;SDS011;4248;48.196;10.924;2024-01-15T06:58:39;10.33;;;4.80;;
8421;SDS011;4248;48.196;10.924;2024-01-15T07:01:05;12.80;;;4.87;;
8421;SDS011;4248;48.196;10.924;2024-01-15T07:03:31;11.93;;;5.50;;
8421;SDS011;4248;48.196;10.924;2024-01-15T07:05:56;15.00;;;5.83;;
8421;SDS011;4248;48.196;10.924;2024-01-15T07:08:22;10.80;;;6.10;;
8421;SDS011;4248;48.196;10.924;2024-01-15T07:10:47;13.40;;;5.37;;
8421;SDS011;4248;48.196;10.924;2024-01-15T07:13:13;10.57;;;5.50;;
8421;SDS011;4248;48.196;10.924;2024-01-15T07:15:38;12.00;;;6.10;;
8421;SDS011;4248;48.196;10.924;2024-01-15T07:18:04;9.63;;;4.93;;
8421;SDS011;4248;48.196;10.924;2024-01-15T07:20:30;12.47;;;6.20;;
8421;SDS011;4248;48.196;10.924;2024-01-15T07:22:55;10.27;;;5.53;;
8421;SDS011;4248;48.196;10.924;2024-01-15T07:25:21;8.90;;;4.50;;
8421;SDS011;4248;48.196;10.924;2024-01-15T07:27:47;12.77;;;4.80;;
8421;SDS011;4248;48.196;10.924;2024-01-15T07:30:13;10.33;;;5.30;;
8421;SDS011;4248;48.196;10.924;2024-01-15T07:32:38;10.83;;;4.60;;
8421;SDS011;4248;48.196;10.924;2024-01-15T07:35:05;12.95;;;5.30;;
8421;SDS011;4248;48.196;10.924;2024-01-15T07:37:31;10.27;;;5.57;;
8421;SDS011;4248;48.196;10.924;2024-01-15T07:39:56;9.97;;;4.67;;
8421;SDS011;4248;48.196;10.924;2024-01-15T07:42:22;9.27;;;4.63;;
8421;SDS011;4248;48.196;10.924;2024-01-15T07:44:47;10.27;;;5.20;;
8421;SDS011;4248;48.196;10.924;2024-01-15T07:47:13;11.40;;;6.10;;
8421;SDS011;4248;48.196;10.924;2024-01-15T07:49:38;10.00;;;5.70;;
8421;SDS011;4248;48.196;10.924;2024-01-15T07:52:04;8.07;;;4.53;;
8421;SDS011;4248;48.196;10.924;2024-01-15T07:54:30;13.70;;;5.67;;
8421;SDS011;4248;48.196;10.924;2024-01-15T07:56:59;9.30;;;4.60;;
8421;SDS011;4248;48.196;10.924;2024-01-15T07:59:26;12.43;;;5.68;;
8421;SDS011;4248;48.196;10.924;2024-01-15T08:01:52;9.38;;;5.15;;
8421;SDS011;4248;48.196;10.924;2024-01-15T08:04:18;11.53;;;5.87;;
8421;SDS011;4248;48.196;10.924;2024-01-15T08:06:44;10.77;;;5.68;;
8421;SDS011;4248;48.196;10.924;2024-01-15T08:09:10;13.48;;;5.63;;
8421;SDS011;4248;48.196;10.924;2024-01-15T08:11:36;11.93;;;5.65;;
8421;SDS011;4248;48.196;10.924;2024-01-15T08:14:06;11.57;;;6.20;;
8421;SDS011;4248;48.196;10.924;2024-01-15T08:16:32;11.27;;;5.30;;
8421;SDS011;4248;48.196;10.924;2024-01-15T08:18:57;10.73;;;4.53;;
8421;SDS011;4248;48.196;10.924;2024-01-15T08:21:23;12.97;;;5.50;;
8421;SDS011;4248;48.196;10.924;2024-01-15T08:23:48;12.13;;;5.90;;
8421;SDS011;4248;48.196;10.924;2024-01-15T08:26:14;10.80;;;5.87;;
8421;SDS011;4248;48.196;10.924;2024-01-15T08:28:39;9.33;;;4.80;;
8421;SDS011;4248;48.196;10.924;2024-01-15T08:31:05;7.80;;;4.80;;
8421;SDS011;4248;48.196;10.924;2024-01-15T08:33:30;11.20;;;5.37;;
8421;SDS011;4248;48.196;10.924;2024-01-15T08:35:56;10.77;;;5.37;;
8421;SDS011;4248;48.196;10.924;2024-01-15T08:38:22;47.90;;;21.77;;
8421;SDS011;4248;48.196;10.924;2024-01-15T08:40:48;11.80;;;7.00;;
8421;SDS011;4248;48.196;10.924;2024-01-15T08:43:14;10.98;;;5.40;;
8421;SDS011;4248;48.196;10.924;2024-01-15T08:45:40;12.47;;;6.33;;
8421;SDS011;4248;48.196;10.924;2024-01-15T08:48:05;9.63;;;5.30;;
8421;SDS011;4248;48.196;10.924;2024-01-15T08:50:32;9.82;;;4.90;;
8421;SDS011;4248;48.196;10.924;2024-01-15T08:52:57;9.52;;;5.38;;
8421;SDS011;4248;48.196;10.924;2024-01-15T08:55:23;10.90;;;5.95;;
8421;SDS011;4248;48.196;10.924;2024-01-15T08:57:49;11.10;;;5.20;;
8421;SDS011;4248;48.196;10.924;2024-01-15T09:00:15;8.95;;;4.47;;
8421;SDS011;4248;48.196;10.924;2024-01-15T09:02:41;15.40;;;8.40;;
8421;SDS011;4248;48.196;10.924;2024-01-15T09:05:07;14.07;;;6.38;;
8421;SDS011;4248;48.196;10.924;2024-01-15T09:07:33;16.67;;;7.87;;
8421;SDS011;4248;48.196;10.924;2024-01-15T09:09:58;17.83;;;8.47;;
8421;SDS011;4248;48.196;10.924;2024-01-15T09:12:25;13.50;;;6.00;;
8421;SDS011;4248;48.196;10.924;2024-01-15T09:14:50;11.63;;;5.45;;
8421;SDS011;4248;48.196;10.924;2024-01-15T09:17:17;11.90;;;5.65;;
8421;SDS011;4248;48.196;10.924;2024-01-15T09:19:43;19.90;;;5.07;;
8421;SDS011;4248;48.196;10.924;2024-01-15T09:22:09;13.35;;;5.63;;
8421;SDS011;4248;48.196;10.924;2024-01-15T09:24:35;9.53;;;5.13;;
8421;SDS011;4248;48.196;10.924;2024-01-15T09:27:01;9.05;;;4.70;;
8421;SDS011;4248;48.196;10.924;2024-01-15T09:29:27;9.23;;;4.82;;
8421;SDS011;4248;48.196;10.924;2024-01-15T09:31:53;9.27;;;4.57;;
8421;SDS011;4248;48.196;10.924;2024-01-15T09:34:19;7.87;;;4.43;;
8421;SDS011;4248;48.196;10.924;2024-01-15T09:36:44;10.70;;;4.27;;
8421;SDS011;4248;48.196;10.924;2024-01-15T09:39:10;6.70;;;3.90;;
8421;SDS011;4248;48.196;10.924;2024-01-15T09:41:39;8.00;;;4.00;;
8421;SDS011;4248;48.196;10.924;2024-01-15T09:44:05;7.20;;;4.05;;
8421;SDS011;4248;48.196;10.924;2024-01-15T09:46:32;8.18;;;4.05;;
8421;SDS011;4248;48.196;10.924;2024-01-15T09:48:59;6.18;;;3.00;;
8421;SDS011;4248;48.196;10.924;2024-01-15T09:51:25;10.00;;;4.47;;
8421;SDS011;4248;48.196;10.924;2024-01-15T09:53:51;7.40;;;4.00;;
8421;SDS011;4248;48.196;10.924;2024-01-15T09:56:18;8.50;;;4.25;;
8421;SDS011;4248;48.196;10.924;2024-01-15T09:58:43;5.07;;;3.03;;
8421;SDS011;4248;48.196;10.924;2024-01-15T10:01:10;5.78;;;3.97;;
8421;SDS011;4248;48.196;10.924;2024-01-15T10:03:36;6.72;;;3.15;;
8421;SDS011;4248;48.196;10.924;2024-01-15T10:06:03;7.72;;;3.90;;
8421;SDS011;4248;48.196;10.924;2024-01-15T10:08:30;8.25;;;3.72;;
8421;SDS011;4248;48.196;10.924;2024-01-15T10:10:57;6.35;;;2.95;;
8421;SDS011;4248;48.196;10.924;2024-01-15T10:13:23;10.03;;;3.50;;
8421;SDS011;4248;48.196;10.924;2024-01-15T10:15:49;7.38;;;3.75;;
8421;SDS011;4248;48.196;10.924;2024-01-15T10:18:15;8.75;;;3.88;;
8421;SDS011;4248;48.196;10.924;2024-01-15T10:20:41;5.40;;;3.07;;
8421;SDS011;4248;48.196;10.924;2024-01-15T10:23:07;13.88;;;7.13;;
8421;SDS011;4248;48.196;10.924;2024-01-15T10:25:33;10.17;;;4.30;;
8421;SDS011;4248;48.196;10.924;2024-01-15T10:28:01;7.65;;;3.20;;
8421;SDS011;4248;48.196;10.924;2024-01-15T10:30:28;6.10;;;3.40;;
8421;SDS011;4248;48.196;10.924;2024-01-15T10:32:57;6.70;;;3.57;;
8421;SDS011;4248;48.196;10.924;2024-01-15T10:35:27;6.55;;;3.58;;
8421;SDS011;4248;48.196;10.924;2024-01-15T10:37:54;6.68;;;3.42;;
8421;SDS011;4248;48.196;10.924;2024-01-15T10:40:20;4.80;;;3.40;;
8421;SDS011;4248;48.196;10.924;2024-01-15T10:42:45;5.47;;;2.87;;
8421;SDS011;4248;48.196;10.924;2024-01-15T10:45:12;7.10;;;3.65;;
8421;SDS011;4248;48.196;10.924;2024-01-15T10:47:42;4.35;;;2.67;;
8421;SDS011;4248;48.196;10.924;2024-01-15T10:50:08;5.93;;;3.15;;
8421;SDS011;4248;48.196;10.924;2024-01-15T10:52:35;7.13;;;3.17;;
8421;SDS011;4248;48.196;10.924;2024-01-15T10:55:02;5.95;;;3.25;;
8421;SDS011;4248;48.196;10.924;2024-01-15T10:57:29;6.05;;;3.00;;
8421;SDS011;4248;48.196;10.924;2024-01-15T10:59:55;8.77;;;3.17;;
8421;SDS011;4248;48.196;10.924;2024-01-15T11:02:21;7.23;;;3.67;;
8421;SDS011;4248;48.196;10.924;2024-01-15T11:04:47;4.68;;;2.90;;
8421;SDS011;4248;48.196;10.924;2024-01-15T11:07:13;7.57;;;3.20;;
8421;SDS011;4248;48.196;10.924;2024-01-15T11:09:39;4.47;;;2.90;;
8421;SDS011;4248;48.196;10.924;2024-01-15T11:12:11;5.97;;;3.83;;
8421;SDS011;4248;48.196;10.924;2024-01-15T11:14:41;5.60;;;3.30;;
8421;SDS011;4248;48.196;10.924;2024-01-15T11:17:10;5.75;;;3.25;;
8421;SDS011;4248;48.196;10.924;2024-01-15T11:24:55;6.07;;;3.20;;
8421;SDS011;4248;48.196;10.924;2024-01-15T11:27:40;7.35;;;3.30;;
8421;SDS011;4248;48.196;10.924;2024-01-15T11:30:08;7.25;;;3.50;;
8421;SDS011;4248;48.196;10.924;2024-01-15T11:32:35;6.05;;;3.25;;
8421;SDS011;4248;48.196;10.924;2024-01-15T11:35:01;6.87;;;3.87;;
8421;SDS011;4248;48.196;10.924;2024-01-15T11:40:23;5.50;;;3.50;;
8421;SDS011;4248;48.196;10.924;2024-01-15T11:43:03;6.05;;;3.67;;
8421;SDS011;4248;48.196;10.924;2024-01-15T11:45:30;9.93;;;3.97;;
8421;SDS011;4248;48.196;10.924;2024-01-15T11:50:35;5.60;;;3.37;;
8421;SDS011;4248;48.196;10.924;2024-01-15T11:53:10;5.55;;;3.10;;
8421;SDS011;4248;48.196;10.924;2024-01-15T11:55:41;7.40;;;3.40;;
8421;SDS011;4248;48.196;10.924;2024-01-15T11:58:10;7.27;;;3.30;;
8421;SDS011;4248;48.196;10.924;2024-01-15T12:00:40;5.87;;;3.10;;
8421;SDS011;4248;48.196;10.924;2024-01-15T12:03:07;7.10;;;3.27;;
8421;SDS011;4248;48.196;10.924;2024-01-15T12:05:33;6.50;;;3.50;;
8421;SDS011;4248;48.196;10.924;2024-01-15T12:08:02;10.20;;;3.47;;
8421;SDS011;4248;48.196;10.924;2024-01-15T12:10:28;10.03;;;5.70;;
8421;SDS011;4248;48.196;10.924;2024-01-15T12:15:25;7.50;;;3.50;;
8421;SDS011;4248;48.196;10.924;2024-01-15T12:17:52;5.43;;;3.53;;
8421;SDS011;4248;48.196;10.924;2024-01-15T12:20:19;5.37;;;3.23;;
8421;SDS011;4248;48.196;10.924;2024-01-15T12:22:45;5.97;;;3.20;;
8421;SDS011;4248;48.196;10.924;2024-01-15T12:25:11;8.93;;;4.23;;
8421;SDS011;4248;48.196;10.924;2024-01-15T12:27:36;11.93;;;3.87;;
8421;SDS011;4248;48.196;10.924;2024-01-15T12:30:03;6.50;;;3.20;;
8421;SDS011;4248;48.196;10.924;2024-01-15T12:32:29;6.35;;;3.22;;
8421;SDS011;4248;48.196;10.924;2024-01-15T12:34:55;7.57;;;3.40;;
8421;SDS011;4248;48.196;10.924;2024-01-15T12:37:20;6.27;;;4.00;;
8421;SDS011;4248;48.196;10.924;2024-01-15T12:39:46;8.50;;;3.97;;
8421;SDS011;4248;48.196;10.924;2024-01-15T12:42:16;8.43;;;4.43;;
8421;SDS011;4248;48.196;10.924;2024-01-15T12:44:42;7.40;;;4.00;;
8421;SDS011;4248;48.196;10.924;2024-01-15T12:47:10;9.50;;;4.37;;
8421;SDS011;4248;48.196;10.924;2024-01-15T12:49:37;6.83;;;4.07;;
8421;SDS011;4248;48.196;10.924;2024-01-15T12:52:03;9.50;;;4.40;;
8421;SDS011;4248;48.196;10.924;2024-01-15T12:54:29;13.80;;;3.80;;
8421;SDS011;4248;48.196;10.924;2024-01-15T12:56:54;7.80;;;4.07;;
8421;SDS011;4248;48.196;10.924;2024-01-15T12:59:20;8.87;;;4.50;;
8421;SDS011;4248;48.196;10.924;2024-01-15T13:01:45;8.83;;;3.90;;
8421;SDS011;4248;48.196;10.924;2024-01-15T13:04:11;9.13;;;4.23;;
8421;SDS011;4248;48.196;10.924;2024-01-15T13:06:46;6.57;;;2.87;;
8421;SDS011;4248;48.196;10.924;2024-01-15T13:09:11;10.30;;;4.60;;
8421;SDS011;4248;48.196;10.924;2024-01-15T13:11:37;8.03;;;4.53;;
8421;SDS011;4248;48.196;10.924;2024-01-15T13:14:02;8.43;;;4.27;;
8421;SDS011;4248;48.196;10.924;2024-01-15T13:16:28;9.20;;;4.47;;
8421;SDS011;4248;48.196;10.924;2024-01-15T13:18:54;8.07;;;4.47;;
8421;SDS011;4248;48.196;10.924;2024-01-15T13:21:21;9.48;;;5.05;;
8421;SDS011;4248;48.196;10.924;2024-01-15T13:23:47;8.53;;;3.60;;
8421;SDS011;4248;48.196;10.924;2024-01-15T13:26:12;7.53;;;3.93;;
8421;SDS011;4248;48.196;10.924;2024-01-15T13:28:38;6.00;;;3.33;;
8421;SDS011;4248;48.196;10.924;2024-01-15T13:31:04;10.77;;;4.60;;
8421;SDS011;4248;48.196;10.924;2024-01-15T13:33:29;9.50;;;5.10;;
8421;SDS011;4248;48.196;10.924;2024-01-15T13:35:55;7.83;;;4.13;;
8421;SDS011;4248;48.196;10.924;2024-01-15T13:38:21;8.60;;;4.60;;
8421;SDS011;4248;48.196;10.924;2024-01-15T13:40:46;11.70;;;4.93;;
8421;SDS011;4248;48.196;10.924;2024-01-15T13:43:12;7.73;;;3.67;;
8421;SDS011;4248;48.196;10.924;2024-01-15T13:45:39;8.83;;;4.10;;
8421;SDS011;4248;48.196;10.924;2024-01-15T13:48:06;8.35;;;4.47;;
8421;SDS011;4248;48.196;10.924;2024-01-15T13:50:33;7.55;;;4.47;;
8421;SDS011;4248;48.196;10.924;2024-01-15T13:53:00;10.75;;;5.90;;
8421;SDS011;4248;48.196;10.924;2024-01-15T13:55:26;9.48;;;4.78;;
8421;SDS011;4248;48.196;10.924;2024-01-15T13:57:53;9.93;;;5.28;;
8421;SDS011;4248;48.196;10.924;2024-01-15T14:00:19;10.60;;;5.13;;
8421;SDS011;4248;48.196;10.924;2024-01-15T14:02:45;12.63;;;6.27;;
8421;SDS011;4248;48.196;10.924;2024-01-15T14:05:11;23.23;;;10.38;;
8421;SDS011;4248;48.196;10.924;2024-01-15T14:07:40;9.88;;;5.03;;
8421;SDS011;4248;48.196;10.924;2024-01-15T14:10:06;9.85;;;4.65;;
8421;SDS011;4248;48.196;10.924;2024-01-15T14:12:33;11.15;;;4.75;;
8421;SDS011;4248;48.196;10.924;2024-01-15T14:14:59;9.13;;;4.63;;
8421;SDS011;4248;48.196;10.924;2024-01-15T14:17:25;10.20;;;5.32;;
8421;SDS011;4248;48.196;10.924;2024-01-15T14:19:51;10.57;;;5.83;;
8421;SDS011;4248;48.196;10.924;2024-01-15T14:22:16;10.50;;;5.53;;
8421;SDS011;4248;48.196;10.924;2024-01-15T14:24:42;9.80;;;4.97;;
8421;SDS011;4248;48.196;10.924;2024-01-15T14:27:08;9.90;;;4.93;;
8421;SDS011;4248;48.196;10.924;2024-01-15T14:29:34;7.97;;;4.20;;
8421;SDS011;4248;48.196;10.924;2024-01-15T14:32:00;8.40;;;4.70;;
8421;SDS011;4248;48.196;10.924;2024-01-15T14:34:26;12.67;;;5.63;;
8421;SDS011;4248;48.196;10.924;2024-01-15T14:36:52;28.13;;;13.07;;
8421;SDS011;4248;48.196;10.924;2024-01-15T14:39:19;53.70;;;18.77;;
8421;SDS011;4248;48.196;10.924;2024-01-15T14:41:45;50.70;;;17.40;;
8421;SDS011;4248;48.196;10.924;2024-01-15T14:44:11;62.30;;;18.20;;
8421;SDS011;4248;48.196;10.924;2024-01-15T14:46:37;101.88;;;28.55;;
8421;SDS011;4248;48.196;10.924;2024-01-15T14:49:03;14.97;;;6.20;;
8421;SDS011;4248;48.196;10.924;2024-01-15T14:51:29;9.50;;;4.70;;
8421;SDS011;4248;48.196;10.924;2024-01-15T14:53:54;9.97;;;4.20;;
8421;SDS011;4248;48.196;10.924;2024-01-15T14:56:20;10.97;;;5.20;;
8421;SDS011;4248;48.196;10.924;2024-01-15T14:58:46;9.47;;;4.10;;
8421;SDS011;4248;48.196;10.924;2024-01-15T15:01:12;8.90;;;4.80;;